LIBD Airport Information

Runway Information
Runway 07 Length 9843 ft width 148 ft
Elevation 176 ft Threshold 1234 ft Heading 67
Runway 25 Length 9843 ft Width 148 ft
Elevation 108 ft Threshold ft Heading 247
Runway 12 Length 512 ft width 164 ft
Elevation 108 ft Threshold ft Heading 123
Runway 30 Length 512 ft Width 164 ft
Elevation 108 ft Threshold ft Heading 303
Airport Frequencies
Type APP Name APP Frequency 119.5 MHZ
Type TWR Name TWR Frequency 118.3 MHZ
Airport Navaids
Type VOR-DME Name Bari Frequency 116400 KHZ
Airport Weather Information & NOTAM
ADDS - METARS form results

(0529 UTC 02 July 2022)
Data provider http://aviationweather.gov/metar/data/
 
METAR text: LIBD 020520Z 27003KT 230V290 CAVOK 27/15 Q1014
Conditions at: LIBD (BARI/PALESE MACC, IT) observed 0520 UTC 02 July 2022
Temperature: 27.0°C (81°F)
Dewpoint: 15.0°C (59°F) [RH = 48%]
Pressure (altimeter): 29.94 inches Hg (1014.0 mb)
Winds: from the W (270 degrees) at 3 MPH (3 knots; 1.5 m/s)
Visibility: 6 or more miles (10+ km)
Ceiling: ceiling and visibility are OK
Clouds: unknown
Weather: no significant weather observed at this time

METAR text: LIBD 020450Z 26004KT CAVOK 25/16 Q1014
Conditions at: LIBD (BARI/PALESE MACC, IT) observed 0450 UTC 02 July 2022
Temperature: 25.0°C (77°F)
Dewpoint: 16.0°C (61°F) [RH = 57%]
Pressure (altimeter): 29.94 inches Hg (1014.0 mb)
Winds: from the W (260 degrees) at 5 MPH (4 knots; 2.1 m/s)
Visibility: 6 or more miles (10+ km)
Ceiling: ceiling and visibility are OK
Clouds: unknown
Weather: no significant weather observed at this time

Forecast for: LIBD (BARI/PALESE MACC, IT)
Text: TAF LIBD 020500Z 0206/0306 VRB05KT CAVOK
Forecast period: 0600 to 0800 UTC 02 July 2022
Forecast type: FROM: standard forecast or significant change
Winds: variable direction winds at 6 MPH (5 knots; 2.6 m/s)
Visibility: 6 or more miles (10+ km)
Ceiling: unknown
Clouds: missing
Weather: NSW  (no significant weather)
Text: BECMG 0208/0210 01013KT
Forecast period: 0800 to 1800 UTC 02 July 2022
Forecast type: BECOMING: Conditions expected to become as follows by 1000 UTC 02 July 2022
Winds: from the N (10 degrees) at 15 MPH (13 knots; 6.7 m/s)
Visibility: 6 or more miles (10+ km)
Ceiling: unknown
Clouds: missing
Weather: NSW  (no significant weather)
Text: BECMG 0218/0220 29008KT
Forecast period: 1800 UTC 02 July 2022 to 0600 UTC 03 July 2022
Forecast type: BECOMING: Conditions expected to become as follows by 2000 UTC 02 July 2022
Winds: from the WNW (290 degrees) at 9 MPH (8 knots; 4.1 m/s)
Visibility: 6 or more miles (10+ km)
Ceiling: unknown
Clouds: missing
Weather: NSW  (no significant weather)